createdAt,value
2018-06-27T00:01:10.384Z,4.20
2018-06-27T00:03:41.114Z,4.40
2018-06-27T00:06:11.804Z,4.03
2018-06-27T00:08:42.234Z,4.23
2018-06-27T00:11:12.998Z,4.50
2018-06-27T00:13:43.221Z,4.77
2018-06-27T00:16:13.325Z,5.47
2018-06-27T00:18:44.382Z,4.90
2018-06-27T00:21:15.168Z,4.80
2018-06-27T00:23:45.823Z,4.70
2018-06-27T00:26:16.708Z,4.70
2018-06-27T00:28:47.863Z,4.43
2018-06-27T00:31:18.546Z,4.93
2018-06-27T00:33:49.340Z,4.60
2018-06-27T00:36:19.961Z,4.03
2018-06-27T00:38:50.761Z,4.93
2018-06-27T00:41:21.358Z,4.97
2018-06-27T00:43:52.114Z,4.77
2018-06-27T00:46:22.724Z,4.80
2018-06-27T00:48:53.565Z,5.07
2018-06-27T00:51:24.023Z,4.63
2018-06-27T00:53:59.969Z,4.57
2018-06-27T00:56:30.781Z,4.83
2018-06-27T00:59:01.651Z,4.27
2018-06-27T01:01:31.836Z,4.63
2018-06-27T01:04:02.654Z,4.77
2018-06-27T01:06:33.481Z,4.77
2018-06-27T01:09:05.056Z,4.50
2018-06-27T01:11:35.789Z,4.80
2018-06-27T01:14:06.714Z,5.40
2018-06-27T01:16:37.363Z,5.00
2018-06-27T01:19:08.334Z,5.23
2018-06-27T01:21:38.441Z,4.87
2018-06-27T01:24:09.470Z,4.93
2018-06-27T01:26:40.263Z,4.73
2018-06-27T01:29:10.913Z,5.07
2018-06-27T01:31:41.564Z,5.30
2018-06-27T01:34:12.538Z,5.77
2018-06-27T01:36:43.217Z,6.37
2018-06-27T01:39:13.956Z,6.63
2018-06-27T01:41:44.639Z,5.67
2018-06-27T01:44:15.108Z,5.67
2018-06-27T01:46:45.772Z,6.33
2018-06-27T01:49:16.445Z,5.73
2018-06-27T01:51:46.617Z,5.90
2018-06-27T01:54:17.114Z,5.23
2018-06-27T01:56:47.697Z,5.73
2018-06-27T01:59:18.378Z,5.67
2018-06-27T02:01:48.953Z,6.37
2018-06-27T02:04:19.660Z,6.73
2018-06-27T02:06:50.250Z,6.93
2018-06-27T02:09:21.035Z,7.73
2018-06-27T02:11:51.605Z,7.70
2018-06-27T02:14:22.424Z,8.23
2018-06-27T02:16:54.621Z,7.47
2018-06-27T02:19:27.671Z,9.00
2018-06-27T02:21:58.420Z,10.90
2018-06-27T02:24:29.201Z,10.70
2018-06-27T02:26:59.909Z,10.80
2018-06-27T02:29:30.544Z,11.40
2018-06-27T02:32:01.221Z,11.90
2018-06-27T02:34:33.460Z,11.67
2018-06-27T02:37:03.637Z,11.80
2018-06-27T02:39:34.378Z,11.37
2018-06-27T02:42:05.086Z,12.13
2018-06-27T02:44:35.790Z,12.93
2018-06-27T02:47:06.502Z,12.37
2018-06-27T02:49:37.411Z,12.83
2018-06-27T02:52:07.670Z,12.17
2018-06-27T02:54:38.485Z,12.37
2018-06-27T02:57:08.526Z,11.47
2018-06-27T02:59:39.385Z,12.27
2018-06-27T03:02:10.044Z,12.90
2018-06-27T03:04:40.806Z,13.27
2018-06-27T03:07:09.778Z,13.70
2018-06-27T03:09:40.410Z,13.83
2018-06-27T03:12:11.363Z,12.17
2018-06-27T03:14:41.982Z,12.93
2018-06-27T03:17:12.661Z,14.30
2018-06-27T03:19:43.248Z,12.50
2018-06-27T03:22:13.939Z,12.53
2018-06-27T03:24:44.483Z,12.83
2018-06-27T03:27:15.414Z,12.57
2018-06-27T03:29:46.052Z,12.43
2018-06-27T03:32:16.741Z,12.33
2018-06-27T03:34:47.629Z,13.23
2018-06-27T03:37:18.257Z,11.43
2018-06-27T03:39:48.880Z,11.53
2018-06-27T03:42:19.733Z,10.57
2018-06-27T03:44:50.477Z,10.37
2018-06-27T03:47:21.487Z,11.57
2018-06-27T03:49:52.056Z,10.00
2018-06-27T03:52:23.874Z,10.60
2018-06-27T03:54:54.512Z,10.47
2018-06-27T03:57:25.440Z,9.97
2018-06-27T03:59:56.085Z,9.67
2018-06-27T04:02:26.889Z,9.67
2018-06-27T04:04:57.528Z,7.80
2018-06-27T04:07:28.313Z,7.27
2018-06-27T04:09:59.025Z,7.57
2018-06-27T04:12:29.711Z,7.10
2018-06-27T04:15:00.360Z,7.27
2018-06-27T04:17:31.645Z,7.47
2018-06-27T04:20:02.469Z,6.77
2018-06-27T04:22:36.211Z,5.97
2018-06-27T04:25:06.524Z,5.37
2018-06-27T04:27:37.384Z,6.23
2018-06-27T04:30:08.028Z,6.80
2018-06-27T04:32:38.837Z,6.10
2018-06-27T04:35:09.164Z,5.67
2018-06-27T04:37:39.440Z,6.20
2018-06-27T04:40:10.077Z,5.53
2018-06-27T04:42:40.929Z,5.87
2018-06-27T04:45:11.514Z,6.23
2018-06-27T04:47:42.376Z,6.13
2018-06-27T04:50:13.058Z,4.90
2018-06-27T04:52:43.805Z,5.67
2018-06-27T04:55:14.733Z,5.10
2018-06-27T04:57:45.677Z,4.70
2018-06-27T05:00:16.394Z,4.70
2018-06-27T05:02:47.372Z,4.53
2018-06-27T05:05:18.110Z,4.50
2018-06-27T05:07:48.814Z,5.17
2018-06-27T05:10:19.495Z,4.37
2018-06-27T05:12:49.994Z,4.60
2018-06-27T05:15:20.743Z,4.77
2018-06-27T05:17:51.658Z,4.63
2018-06-27T05:20:22.326Z,4.83
2018-06-27T05:22:53.162Z,4.03
2018-06-27T05:25:23.910Z,4.13
2018-06-27T05:27:54.766Z,4.63
2018-06-27T05:30:24.869Z,4.50
2018-06-27T05:32:55.634Z,11.10
2018-06-27T05:35:26.365Z,4.23
2018-06-27T05:37:57.013Z,4.93
2018-06-27T05:40:27.698Z,5.07
2018-06-27T05:42:58.641Z,4.80
2018-06-27T05:45:28.909Z,4.77
2018-06-27T05:47:59.580Z,4.53
2018-06-27T05:50:30.271Z,5.00
2018-06-27T05:53:02.131Z,4.87
2018-06-27T05:55:32.598Z,4.97
2018-06-27T05:58:02.966Z,4.57
2018-06-27T06:00:33.628Z,4.20
2018-06-27T06:03:04.633Z,4.00
2018-06-27T06:05:35.321Z,4.33
2018-06-27T06:08:06.153Z,4.10
2018-06-27T06:10:36.660Z,4.30
2018-06-27T06:13:07.634Z,4.17
2018-06-27T06:15:38.337Z,4.27
2018-06-27T06:18:09.017Z,3.97
2018-06-27T06:20:39.206Z,3.87
2018-06-27T06:23:10.263Z,3.63
2018-06-27T06:25:40.361Z,4.17
2018-06-27T06:28:11.234Z,4.33
2018-06-27T06:30:41.957Z,4.23
2018-06-27T06:33:12.246Z,3.93
2018-06-27T06:35:42.991Z,3.80
2018-06-27T06:38:13.793Z,3.60
2018-06-27T06:40:44.573Z,3.77
2018-06-27T06:43:15.600Z,3.10
2018-06-27T06:45:46.318Z,4.00
2018-06-27T06:48:17.670Z,3.40
2018-06-27T06:50:48.391Z,3.60
2018-06-27T06:53:19.185Z,3.80
2018-06-27T06:55:49.345Z,3.40
2018-06-27T06:58:20.087Z,3.60
2018-06-27T07:00:50.757Z,3.10
2018-06-27T07:03:21.425Z,4.27
2018-06-27T07:05:52.093Z,4.80
2018-06-27T07:08:22.814Z,4.70
2018-06-27T07:10:53.489Z,5.47
2018-06-27T07:13:23.756Z,5.87
2018-06-27T07:15:54.329Z,8.23
2018-06-27T07:18:25.286Z,6.80
2018-06-27T07:20:55.380Z,8.57
2018-06-27T07:23:26.089Z,7.60
2018-06-27T07:25:56.701Z,7.10
2018-06-27T07:28:27.335Z,6.50
2018-06-27T07:30:58.446Z,6.50
2018-06-27T07:33:29.235Z,8.13
2018-06-27T07:35:59.840Z,8.90
2018-06-27T07:38:30.483Z,8.93
2018-06-27T07:41:01.358Z,9.10
2018-06-27T07:43:32.065Z,10.13
2018-06-27T07:46:03.235Z,8.13
2018-06-27T07:48:33.862Z,6.80
2018-06-27T07:51:04.551Z,6.20
2018-06-27T07:53:35.283Z,8.53
2018-06-27T07:56:06.452Z,9.50
2018-06-27T07:58:37.083Z,8.37
2018-06-27T08:01:07.894Z,9.03
2018-06-27T08:03:38.598Z,8.07
2018-06-27T08:06:09.690Z,8.43
2018-06-27T08:08:40.475Z,6.47
2018-06-27T08:11:10.884Z,6.10
2018-06-27T08:13:41.468Z,6.43
2018-06-27T08:16:12.142Z,6.17
2018-06-27T08:18:43.922Z,6.30
2018-06-27T08:21:15.030Z,5.13
2018-06-27T08:23:45.582Z,4.73
2018-06-27T08:26:16.440Z,4.80
2018-06-27T08:28:47.166Z,5.00
2018-06-27T08:31:17.960Z,4.57
2018-06-27T08:33:48.514Z,9.67
2018-06-27T08:36:19.414Z,9.90
2018-06-27T08:38:50.086Z,5.70
2018-06-27T08:41:20.850Z,4.70
2018-06-27T08:43:51.074Z,4.63
2018-06-27T08:46:21.925Z,4.10
2018-06-27T08:48:52.547Z,4.40
2018-06-27T08:51:23.321Z,3.40
2018-06-27T08:53:54.005Z,3.30
2018-06-27T08:56:24.862Z,3.43
2018-06-27T08:58:56.243Z,2.83
2018-06-27T09:01:26.477Z,2.63
2018-06-27T09:03:56.701Z,2.13
2018-06-27T09:06:26.702Z,2.17
2018-06-27T09:08:57.685Z,3.00
2018-06-27T09:11:28.609Z,2.60
2018-06-27T09:13:59.613Z,2.97
2018-06-27T09:16:30.509Z,2.47
2018-06-27T09:19:01.525Z,2.20
2018-06-27T09:21:32.340Z,2.30
2018-06-27T09:24:04.352Z,3.03
2018-06-27T09:26:35.414Z,3.50
2018-06-27T09:29:06.721Z,2.93
2018-06-27T09:31:38.698Z,3.50
2018-06-27T09:34:10.179Z,3.40
2018-06-27T09:36:41.208Z,3.40
2018-06-27T09:39:12.669Z,4.07
2018-06-27T09:41:43.898Z,3.80
2018-06-27T09:44:15.005Z,3.63
2018-06-27T09:46:46.943Z,4.07
2018-06-27T09:49:18.092Z,4.60
2018-06-27T09:51:49.456Z,4.90
2018-06-27T09:54:21.220Z,4.40
2018-06-27T09:56:52.289Z,4.63
2018-06-27T09:59:23.833Z,5.07
2018-06-27T10:01:54.996Z,5.00
2018-06-27T10:04:25.492Z,5.40
2018-06-27T10:06:57.004Z,5.80
2018-06-27T10:09:28.400Z,5.83
2018-06-27T10:11:59.948Z,5.47
2018-06-27T10:14:31.460Z,6.07
2018-06-27T10:17:04.115Z,5.90
2018-06-27T10:19:34.968Z,7.10
2018-06-27T10:22:06.096Z,10.07
2018-06-27T10:24:37.167Z,7.10
2018-06-27T10:27:08.085Z,8.50
2018-06-27T10:29:39.292Z,7.93
2018-06-27T10:32:10.280Z,7.80
2018-06-27T10:34:41.488Z,7.70
2018-06-27T10:37:12.740Z,6.77
2018-06-27T10:39:44.992Z,6.80
2018-06-27T10:42:17.090Z,9.33
2018-06-27T10:44:49.221Z,9.50
2018-06-27T10:47:20.250Z,10.73
2018-06-27T10:49:51.296Z,10.67
2018-06-27T10:52:22.920Z,11.37
2018-06-27T10:54:54.969Z,10.87
2018-06-27T10:57:26.898Z,11.13
2018-06-27T10:59:58.001Z,11.60
2018-06-27T11:02:29.936Z,12.30
2018-06-27T11:05:01.545Z,13.47
2018-06-27T11:07:33.433Z,13.10
2018-06-27T11:10:04.937Z,14.03
2018-06-27T11:12:36.005Z,13.17
2018-06-27T11:15:07.940Z,12.80
2018-06-27T11:17:38.950Z,14.60
2018-06-27T11:20:10.148Z,14.60
2018-06-27T11:22:41.375Z,13.37
2018-06-27T11:25:13.369Z,14.43
2018-06-27T11:27:44.469Z,17.13
2018-06-27T11:30:15.872Z,15.33
2018-06-27T11:32:46.970Z,13.83
2018-06-27T11:35:18.544Z,14.53
2018-06-27T11:37:49.590Z,15.07
2018-06-27T11:40:20.701Z,16.30
2018-06-27T11:42:51.716Z,17.60
2018-06-27T11:45:22.822Z,16.70
2018-06-27T11:47:54.620Z,17.40
2018-06-27T11:50:26.613Z,16.57
2018-06-27T11:52:57.801Z,16.83
2018-06-27T11:55:29.068Z,15.93
2018-06-27T11:58:00.499Z,16.53
2018-06-27T12:00:31.838Z,17.03
2018-06-27T12:03:02.716Z,17.63
2018-06-27T12:05:33.999Z,19.10
2018-06-27T12:08:05.094Z,18.73
2018-06-27T12:10:36.273Z,17.77
2018-06-27T12:13:07.222Z,17.47
2018-06-27T12:15:38.380Z,17.03
2018-06-27T12:18:09.434Z,17.13
2018-06-27T12:20:40.765Z,17.97
2018-06-27T12:23:11.801Z,17.77
2018-06-27T12:25:42.914Z,17.30
2018-06-27T12:28:13.892Z,17.53
2018-06-27T12:30:45.376Z,14.57
2018-06-27T12:33:16.404Z,15.10
2018-06-27T12:35:47.805Z,15.60
2018-06-27T12:38:18.860Z,15.83
2018-06-27T12:40:49.939Z,17.37
2018-06-27T12:43:20.896Z,17.03
2018-06-27T12:45:52.165Z,17.27
2018-06-27T12:48:23.385Z,17.40
2018-06-27T12:50:54.437Z,15.07
2018-06-27T12:53:25.412Z,15.00
2018-06-27T12:55:56.195Z,15.07
2018-06-27T12:58:27.497Z,14.90
2018-06-27T13:00:57.984Z,17.20
2018-06-27T13:03:29.077Z,17.73
2018-06-27T13:06:00.284Z,15.97
2018-06-27T13:08:31.296Z,15.60
2018-06-27T13:11:02.265Z,17.00
2018-06-27T13:13:33.430Z,17.50
2018-06-27T13:16:04.407Z,16.20
2018-06-27T13:18:35.399Z,15.33
2018-06-27T13:21:06.866Z,14.83
2018-06-27T13:23:37.393Z,13.00
2018-06-27T13:26:07.966Z,15.00
2018-06-27T13:28:38.959Z,12.27
2018-06-27T13:31:10.351Z,12.20
2018-06-27T13:33:41.587Z,13.87
2018-06-27T13:36:13.063Z,15.30
2018-06-27T13:38:44.057Z,15.57
2018-06-27T13:41:15.161Z,16.97
2018-06-27T13:43:46.738Z,15.30
2018-06-27T13:46:17.702Z,18.17
2018-06-27T13:48:48.739Z,14.93
2018-06-27T13:51:19.760Z,16.57
2018-06-27T13:53:50.224Z,15.93
2018-06-27T13:56:21.208Z,16.13
2018-06-27T13:58:52.082Z,15.57
2018-06-27T14:01:23.979Z,17.37
2018-06-27T14:03:55.204Z,16.33
2018-06-27T14:06:26.375Z,16.50
2018-06-27T14:08:57.532Z,17.10
2018-06-27T14:11:28.725Z,15.20
2018-06-27T14:13:59.808Z,16.73
2018-06-27T14:16:30.885Z,16.60
2018-06-27T14:19:01.413Z,16.13
2018-06-27T14:21:31.732Z,13.80
2018-06-27T14:24:02.894Z,14.87
2018-06-27T14:26:33.807Z,22.37
2018-06-27T14:29:05.043Z,15.83
2018-06-27T14:31:36.184Z,16.27
2018-06-27T14:34:07.322Z,16.50
2018-06-27T14:36:38.285Z,16.70
2018-06-27T14:39:11.280Z,15.43
2018-06-27T14:41:42.388Z,15.23
2018-06-27T14:44:13.405Z,12.27
2018-06-27T14:46:44.407Z,14.90
2018-06-27T14:49:15.717Z,14.13
2018-06-27T14:51:46.770Z,14.60
2018-06-27T14:54:17.971Z,13.97
2018-06-27T14:56:48.849Z,13.70
2018-06-27T14:59:20.034Z,13.50
2018-06-27T15:01:51.005Z,20.13
2018-06-27T15:04:21.831Z,16.90
2018-06-27T15:06:52.460Z,14.37
2018-06-27T15:09:23.468Z,12.33
2018-06-27T15:11:54.101Z,13.87
2018-06-27T15:14:25.102Z,14.30
2018-06-27T15:16:56.122Z,12.97
2018-06-27T15:19:27.137Z,15.63
2018-06-27T15:21:58.177Z,13.77
2018-06-27T15:24:29.246Z,13.83
2018-06-27T15:26:59.890Z,12.37
2018-06-27T15:29:30.906Z,13.63
2018-06-27T15:32:01.467Z,13.20
2018-06-27T15:34:32.566Z,13.13
2018-06-27T15:37:03.324Z,12.20
2018-06-27T15:39:34.497Z,12.67
2018-06-27T15:42:05.216Z,12.97
2018-06-27T15:44:35.742Z,12.97
2018-06-27T15:47:06.542Z,12.00
2018-06-27T15:49:37.626Z,13.00
2018-06-27T15:52:08.284Z,13.80
2018-06-27T15:54:38.491Z,14.80
2018-06-27T15:57:09.305Z,14.40
2018-06-27T15:59:44.899Z,14.73
2018-06-27T16:02:15.737Z,13.57
2018-06-27T16:04:46.719Z,14.50
2018-06-27T16:07:17.386Z,13.50
2018-06-27T16:09:49.238Z,15.33
2018-06-27T16:12:20.140Z,15.40
2018-06-27T16:14:51.082Z,14.80
2018-06-27T16:17:21.936Z,14.40
2018-06-27T16:19:51.917Z,15.10
2018-06-27T16:22:22.646Z,15.33
2018-06-27T16:24:53.524Z,15.30
2018-06-27T16:27:24.253Z,15.40
2018-06-27T16:29:55.353Z,14.93
2018-06-27T16:32:26.082Z,14.97
2018-06-27T16:34:56.859Z,14.93
2018-06-27T16:37:27.538Z,15.17
2018-06-27T16:39:58.451Z,14.77
2018-06-27T16:42:29.222Z,15.17
2018-06-27T16:44:59.965Z,15.77
2018-06-27T16:47:30.698Z,15.67
2018-06-27T16:50:01.559Z,14.97
2018-06-27T16:52:32.259Z,14.53
2018-06-27T16:55:03.119Z,15.73
2018-06-27T16:57:33.834Z,15.17
2018-06-27T17:00:04.859Z,15.47
2018-06-27T17:02:34.942Z,15.77
2018-06-27T17:05:05.975Z,16.13
2018-06-27T17:07:36.944Z,16.07
2018-06-27T17:10:07.441Z,16.00
2018-06-27T17:12:38.078Z,16.47
2018-06-27T17:15:08.758Z,16.67
2018-06-27T17:17:39.439Z,17.13
2018-06-27T17:20:10.214Z,17.57
2018-06-27T17:22:40.962Z,15.43
2018-06-27T17:25:12.248Z,16.47
2018-06-27T17:27:42.990Z,15.63
2018-06-27T17:30:13.717Z,15.03
2018-06-27T17:32:44.203Z,15.10
2018-06-27T17:35:14.994Z,14.97
2018-06-27T17:37:45.771Z,16.10
2018-06-27T17:40:16.528Z,15.50
2018-06-27T17:42:47.878Z,15.00
2018-06-27T17:45:18.854Z,14.13
2018-06-27T17:47:49.518Z,14.27
2018-06-27T17:50:20.330Z,14.87
2018-06-27T17:52:51.020Z,14.60
2018-06-27T17:55:22.035Z,15.33
2018-06-27T17:57:52.854Z,15.67
2018-06-27T18:00:23.134Z,15.30
2018-06-27T18:02:53.920Z,16.17
2018-06-27T18:05:24.690Z,15.63
2018-06-27T18:07:55.342Z,16.07
2018-06-27T18:10:26.082Z,15.53
2018-06-27T18:12:56.871Z,15.27
2018-06-27T18:15:27.555Z,16.13
2018-06-27T18:17:58.280Z,15.90
2018-06-27T18:20:29.069Z,14.87
2018-06-27T18:22:59.759Z,15.80
2018-06-27T18:25:31.956Z,15.00
2018-06-27T18:28:03.470Z,15.10
2018-06-27T18:30:34.631Z,14.33
2018-06-27T18:33:05.410Z,14.57
2018-06-27T18:35:36.942Z,15.27
2018-06-27T18:38:07.842Z,15.57
2018-06-27T18:40:38.484Z,16.33
2018-06-27T18:43:09.102Z,21.50
2018-06-27T18:45:39.530Z,21.20
2018-06-27T18:48:10.219Z,19.73
2018-06-27T18:50:40.955Z,20.43
2018-06-27T18:53:11.581Z,20.33
2018-06-27T18:55:42.320Z,19.80
2018-06-27T18:58:13.406Z,19.93
2018-06-27T19:00:44.189Z,20.10
2018-06-27T19:03:16.164Z,20.10
2018-06-27T19:05:46.580Z,19.07
2018-06-27T19:08:17.161Z,18.30
2018-06-27T19:10:48.938Z,17.20
2018-06-27T19:13:19.622Z,18.07
2018-06-27T19:15:50.486Z,17.30
2018-06-27T19:18:21.570Z,17.23
2018-06-27T19:20:52.414Z,16.90
2018-06-27T19:23:23.094Z,16.17
2018-06-27T19:25:53.890Z,15.73
2018-06-27T19:28:24.584Z,15.43
2018-06-27T19:30:55.362Z,15.40
2018-06-27T19:33:26.106Z,16.70
2018-06-27T19:35:56.201Z,16.90
2018-06-27T19:38:27.001Z,16.07
2018-06-27T19:40:57.941Z,15.03
2018-06-27T19:43:28.630Z,15.83
2018-06-27T19:45:59.466Z,17.50
2018-06-27T19:48:30.151Z,17.43
2018-06-27T19:51:00.723Z,16.20
2018-06-27T19:53:30.817Z,16.43
2018-06-27T19:56:01.402Z,16.63
2018-06-27T19:58:31.960Z,16.43
2018-06-27T20:01:02.693Z,16.47
2018-06-27T20:03:33.267Z,16.17
2018-06-27T20:06:04.755Z,15.83
2018-06-27T20:08:35.502Z,15.53
2018-06-27T20:11:06.162Z,15.07
2018-06-27T20:13:36.702Z,14.97
2018-06-27T20:16:07.676Z,16.10
2018-06-27T20:18:38.074Z,15.83
2018-06-27T20:21:08.325Z,14.30
2018-06-27T20:23:39.051Z,14.07
2018-06-27T20:26:09.777Z,14.23
2018-06-27T20:28:40.514Z,15.07
2018-06-27T20:31:11.556Z,13.13
2018-06-27T20:33:42.107Z,14.03
2018-06-27T20:36:12.859Z,15.50
2018-06-27T20:38:43.609Z,14.67
2018-06-27T20:41:14.820Z,15.23
2018-06-27T20:43:45.461Z,14.17
2018-06-27T20:46:16.510Z,14.47
2018-06-27T20:48:47.202Z,13.57
2018-06-27T20:51:17.870Z,13.70
2018-06-27T20:53:48.510Z,12.93
2018-06-27T20:56:19.495Z,14.33
2018-06-27T20:58:50.153Z,13.97
2018-06-27T21:01:20.855Z,13.47
2018-06-27T21:03:51.658Z,14.03
2018-06-27T21:06:22.355Z,13.40
2018-06-27T21:08:53.958Z,14.03
2018-06-27T21:11:25.633Z,14.20
2018-06-27T21:13:56.206Z,15.00
2018-06-27T21:16:27.266Z,14.57
2018-06-27T21:18:58.131Z,15.60
2018-06-27T21:21:28.937Z,14.97
2018-06-27T21:23:59.563Z,14.80
2018-06-27T21:26:30.574Z,16.00
2018-06-27T21:29:01.344Z,16.03
2018-06-27T21:31:32.046Z,16.27
2018-06-27T21:34:02.637Z,15.53
2018-06-27T21:36:33.665Z,16.10
2018-06-27T21:39:05.368Z,16.83
2018-06-27T21:41:36.024Z,17.23
2018-06-27T21:44:06.967Z,18.77
2018-06-27T21:46:37.801Z,19.40
2018-06-27T21:49:08.439Z,19.60
2018-06-27T21:51:39.345Z,18.93
2018-06-27T21:54:10.001Z,19.00
2018-06-27T21:56:40.679Z,18.13
2018-06-27T21:59:10.942Z,18.37
2018-06-27T22:01:42.851Z,18.70
2018-06-27T22:04:14.582Z,20.67
2018-06-27T22:06:45.312Z,18.77
2018-06-27T22:09:16.077Z,18.87
2018-06-27T22:11:46.824Z,19.40
2018-06-27T22:14:17.793Z,19.67
2018-06-27T22:16:48.517Z,19.03
2018-06-27T22:19:19.353Z,19.47
2018-06-27T22:21:50.037Z,17.90
2018-06-27T22:24:21.096Z,19.77
2018-06-27T22:26:53.438Z,19.37
2018-06-27T22:29:24.121Z,18.77
2018-06-27T22:31:54.941Z,19.67
2018-06-27T22:34:25.153Z,19.63
2018-06-27T22:36:55.770Z,18.50
2018-06-27T22:39:26.998Z,19.00
2018-06-27T22:41:57.632Z,19.53
2018-06-27T22:44:28.546Z,19.27
2018-06-27T22:46:59.258Z,19.10
2018-06-27T22:49:29.837Z,18.50
2018-06-27T22:52:00.495Z,18.80
2018-06-27T22:54:31.161Z,18.73
2018-06-27T22:57:01.824Z,18.50
2018-06-27T22:59:32.511Z,17.97
2018-06-27T23:02:03.538Z,18.67
2018-06-27T23:04:34.507Z,18.27
2018-06-27T23:07:05.222Z,19.13
2018-06-27T23:09:36.213Z,19.40
2018-06-27T23:12:06.785Z,19.37
2018-06-27T23:14:36.973Z,18.93
2018-06-27T23:17:07.592Z,19.57
2018-06-27T23:19:38.444Z,19.50
2018-06-27T23:22:18.481Z,19.93
2018-06-27T23:24:49.306Z,18.67
2018-06-27T23:27:19.955Z,18.47
2018-06-27T23:29:50.739Z,17.87
2018-06-27T23:32:20.994Z,19.03
2018-06-27T23:34:51.774Z,18.53
2018-06-27T23:37:22.523Z,18.83
2018-06-27T23:39:53.326Z,18.27
2018-06-27T23:42:24.049Z,17.90
2018-06-27T23:44:54.902Z,17.53
2018-06-27T23:47:25.574Z,17.13
2018-06-27T23:49:56.406Z,17.87
2018-06-27T23:52:27.093Z,17.47
2018-06-27T23:54:57.673Z,17.83
2018-06-27T23:57:28.342Z,16.43
2018-06-27T23:59:59.036Z,17.20
